Terminal Aerodrome Forecast
Issued by NWS Tulsa, OK

Home | Current Version | Previous Version | Text Only | Print | Product List | Glossary On
Versions: 1 2 3 4 5 6 7 8 9 10 11 12 13 14 15 16 17 18 19
000
FTUS44 KTSA 021700
TAFFSM
TAF
KFSM 021724Z 0218/0318 17005KT P6SM -RA SCT080 BKN100
     FM022100 16008KT P6SM BKN250
     FM030300 09003KT P6SM BKN250
     FM031500 16006KT P6SM OVC025=

USA.gov is the U.S. government's official web portal to all federal, state and local government web resources and services.